sensor_id;sensor_type;location;lat;lon;timestamp;pressure;altitude;pressure_sealevel;temperature;humidity
77793;BME280;66983;51.438;5.438;2023-10-13T00:01:59;101139.88;;;18.02;100.00
77793;BME280;66983;51.438;5.438;2023-10-13T00:04:25;101139.09;;;18.00;100.00
77793;BME280;66983;51.438;5.438;2023-10-13T00:06:51;101142.66;;;18.01;100.00
77793;BME280;66983;51.438;5.438;2023-10-13T00:09:19;101135.94;;;17.93;100.00
77793;BME280;66983;51.438;5.438;2023-10-13T00:11:45;101139.00;;;18.02;100.00
77793;BME280;66983;51.438;5.438;2023-10-13T00:14:14;101137.19;;;18.02;100.00
77793;BME280;66983;51.438;5.438;2023-10-13T00:16:44;101127.44;;;18.00;100.00
77793;BME280;66983;51.438;5.438;2023-10-13T00:19:29;101128.50;;;17.97;100.00
77793;BME280;66983;51.438;5.438;2023-10-13T00:22:03;101131.13;;;17.98;100.00
77793;BME280;66983;51.438;5.438;2023-10-13T00:24:35;101120.41;;;17.97;100.00
77793;BME280;66983;51.438;5.438;2023-10-13T00:27:15;101118.59;;;17.97;100.00
77793;BME280;66983;51.438;5.438;2023-10-13T00:29:55;101116.00;;;17.96;100.00
77793;BME280;66983;51.438;5.438;2023-10-13T00:32:42;101117.81;;;17.95;100.00
77793;BME280;66983;51.438;5.438;2023-10-13T00:35:11;101112.53;;;17.94;100.00
77793;BME280;66983;51.438;5.438;2023-10-13T00:38:01;101106.69;;;17.87;100.00
77793;BME280;66983;51.438;5.438;2023-10-13T00:40:32;101102.84;;;17.91;100.00
77793;BME280;66983;51.438;5.438;2023-10-13T00:42:58;101101.00;;;17.92;100.00
77793;BME280;66983;51.438;5.438;2023-10-13T00:46:00;101098.41;;;17.90;100.00
77793;BME280;66983;51.438;5.438;2023-10-13T00:48:32;101097.84;;;17.85;100.00
77793;BME280;66983;51.438;5.438;2023-10-13T00:51:05;101095.72;;;17.90;100.00
77793;BME280;66983;51.438;5.438;2023-10-13T00:53:42;101094.84;;;17.90;100.00
77793;BME280;66983;51.438;5.438;2023-10-13T00:56:10;101089.44;;;17.90;100.00
77793;BME280;66983;51.438;5.438;2023-10-13T00:58:47;101094.84;;;17.90;100.00
77793;BME280;66983;51.438;5.438;2023-10-13T01:01:16;101087.72;;;17.89;100.00
77793;BME280;66983;51.438;5.438;2023-10-13T01:03:52;101074.44;;;17.86;100.00
77793;BME280;66983;51.438;5.438;2023-10-13T01:06:29;101074.34;;;17.87;100.00
77793;BME280;66983;51.438;5.438;2023-10-13T01:09:06;101074.34;;;17.87;100.00
77793;BME280;66983;51.438;5.438;2023-10-13T01:11:50;101071.53;;;17.89;100.00
77793;BME280;66983;51.438;5.438;2023-10-13T01:14:22;101069.81;;;17.88;100.00
77793;BME280;66983;51.438;5.438;2023-10-13T01:16:49;101067.00;;;17.89;100.00
77793;BME280;66983;51.438;5.438;2023-10-13T01:19:19;101057.19;;;17.88;100.00
77793;BME280;66983;51.438;5.438;2023-10-13T01:21:51;101043.13;;;17.83;100.00
77793;BME280;66983;51.438;5.438;2023-10-13T01:24:28;101049.09;;;17.88;100.00
77793;BME280;66983;51.438;5.438;2023-10-13T01:26:57;101046.41;;;17.88;100.00
77793;BME280;66983;51.438;5.438;2023-10-13T01:29:24;101039.16;;;17.89;100.00
77793;BME280;66983;51.438;5.438;2023-10-13T01:31:54;101040.13;;;17.88;100.00
77793;BME280;66983;51.438;5.438;2023-10-13T01:34:20;101037.44;;;17.88;100.00
77793;BME280;66983;51.438;5.438;2023-10-13T01:36:54;101023.84;;;17.89;100.00
77793;BME280;66983;51.438;5.438;2023-10-13T01:39:21;101023.19;;;17.86;100.00
77793;BME280;66983;51.438;5.438;2023-10-13T01:41:52;101014.91;;;17.89;100.00
77793;BME280;66983;51.438;5.438;2023-10-13T01:44:27;101011.34;;;17.88;100.00
77793;BME280;66983;51.438;5.438;2023-10-13T01:47:00;101009.59;;;17.87;100.00
77793;BME280;66983;51.438;5.438;2023-10-13T01:49:35;100998.16;;;17.84;100.00
77793;BME280;66983;51.438;5.438;2023-10-13T01:52:10;101000.94;;;17.82;100.00
77793;BME280;66983;51.438;5.438;2023-10-13T01:54:37;100994.69;;;17.82;100.00
77793;BME280;66983;51.438;5.438;2023-10-13T01:57:07;100984.31;;;17.76;100.00
77793;BME280;66983;51.438;5.438;2023-10-13T01:59:33;100992.09;;;17.80;100.00
77793;BME280;66983;51.438;5.438;2023-10-13T02:01:58;100990.25;;;17.81;100.00
77793;BME280;66983;51.438;5.438;2023-10-13T02:04:27;100981.31;;;17.80;100.00
77793;BME280;66983;51.438;5.438;2023-10-13T02:06:52;100983.03;;;17.81;100.00
77793;BME280;66983;51.438;5.438;2023-10-13T02:09:18;100974.84;;;17.83;100.00
77793;BME280;66983;51.438;5.438;2023-10-13T02:11:52;100973.22;;;17.80;100.00
77793;BME280;66983;51.438;5.438;2023-10-13T02:14:22;100967.72;;;17.82;100.00
77793;BME280;66983;51.438;5.438;2023-10-13T02:16:51;100974.94;;;17.81;100.00
77793;BME280;66983;51.438;5.438;2023-10-13T02:19:21;100966.09;;;17.79;100.00
77793;BME280;66983;51.438;5.438;2023-10-13T02:21:47;100969.47;;;17.83;100.00
77793;BME280;66983;51.438;5.438;2023-10-13T02:24:24;100973.13;;;17.82;100.00
77793;BME280;66983;51.438;5.438;2023-10-13T02:26:56;100965.91;;;17.82;100.00
77793;BME280;66983;51.438;5.438;2023-10-13T02:29:28;100962.34;;;17.82;100.00
77793;BME280;66983;51.438;5.438;2023-10-13T02:31:54;100962.34;;;17.82;100.00
77793;BME280;66983;51.438;5.438;2023-10-13T02:34:20;100951.66;;;17.80;100.00
77793;BME280;66983;51.438;5.438;2023-10-13T02:36:48;100950.69;;;17.81;100.00
77793;BME280;66983;51.438;5.438;2023-10-13T02:39:15;100958.78;;;17.81;100.00
77793;BME280;66983;51.438;5.438;2023-10-13T02:41:56;100954.44;;;17.79;100.00
77793;BME280;66983;51.438;5.438;2023-10-13T02:44:21;100938.06;;;17.82;100.00
77793;BME280;66983;51.438;5.438;2023-10-13T02:46:56;100928.16;;;17.82;100.00
77793;BME280;66983;51.438;5.438;2023-10-13T02:49:24;100927.38;;;17.80;100.00
77793;BME280;66983;51.438;5.438;2023-10-13T02:51:51;100919.28;;;17.80;100.00
77793;BME280;66983;51.438;5.438;2023-10-13T02:54:18;100914.88;;;17.79;100.00
77793;BME280;66983;51.438;5.438;2023-10-13T02:56:45;100909.47;;;17.79;100.00
77793;BME280;66983;51.438;5.438;2023-10-13T02:59:24;100897.81;;;17.79;100.00
77793;BME280;66983;51.438;5.438;2023-10-13T03:02:08;100892.44;;;17.79;100.00
77793;BME280;66983;51.438;5.438;2023-10-13T03:04:57;100886.19;;;17.78;100.00
77793;BME280;66983;51.438;5.438;2023-10-13T03:07:34;100885.31;;;17.78;100.00
77793;BME280;66983;51.438;5.438;2023-10-13T03:10:02;100872.69;;;17.78;100.00
77793;BME280;66983;51.438;5.438;2023-10-13T03:12:39;100865.47;;;17.79;100.00
77793;BME280;66983;51.438;5.438;2023-10-13T03:15:06;100871.72;;;17.79;100.00
77793;BME280;66983;51.438;5.438;2023-10-13T03:17:45;100869.78;;;17.81;100.00
77793;BME280;66983;51.438;5.438;2023-10-13T03:20:16;100866.13;;;17.82;100.00
77793;BME280;66983;51.438;5.438;2023-10-13T03:22:52;100867.84;;;17.83;100.00
77793;BME280;66983;51.438;5.438;2023-10-13T03:25:18;100858.81;;;17.84;100.00
77793;BME280;66983;51.438;5.438;2023-10-13T03:27:58;100848.88;;;17.85;100.00
77793;BME280;66983;51.438;5.438;2023-10-13T03:30:24;100842.63;;;17.84;100.00
77793;BME280;66983;51.438;5.438;2023-10-13T03:33:04;100854.06;;;17.88;100.00
77793;BME280;66983;51.438;5.438;2023-10-13T03:35:34;100836.06;;;17.88;100.00
77793;BME280;66983;51.438;5.438;2023-10-13T03:38:11;100830.44;;;17.91;100.00
77793;BME280;66983;51.438;5.438;2023-10-13T03:40:43;100824.09;;;17.92;100.00
77793;BME280;66983;51.438;5.438;2023-10-13T03:43:14;100818.56;;;17.94;100.00
77793;BME280;66983;51.438;5.438;2023-10-13T03:45:49;100812.28;;;17.93;100.00
77793;BME280;66983;51.438;5.438;2023-10-13T03:48:19;100800.53;;;17.94;100.00
77793;BME280;66983;51.438;5.438;2023-10-13T03:50:52;100800.53;;;17.94;100.00
77793;BME280;66983;51.438;5.438;2023-10-13T03:53:37;100739.81;;;17.63;100.00
77793;BME280;66983;51.438;5.438;2023-10-13T03:56:21;100792.78;;;17.90;100.00
77793;BME280;66983;51.438;5.438;2023-10-13T03:59:06;100793.66;;;17.90;100.00
77793;BME280;66983;51.438;5.438;2023-10-13T04:01:36;100788.47;;;17.87;100.00
77793;BME280;66983;51.438;5.438;2023-10-13T04:04:18;100772.50;;;17.84;100.00
77793;BME280;66983;51.438;5.438;2023-10-13T04:07:03;100772.72;;;17.81;100.00
77793;BME280;66983;51.438;5.438;2023-10-13T04:09:39;100764.75;;;17.80;100.00
77793;BME280;66983;51.438;5.438;2023-10-13T04:12:06;100763.88;;;17.79;100.00
77793;BME280;66983;51.438;5.438;2023-10-13T04:14:41;100767.53;;;17.78;100.00
77793;BME280;66983;51.438;5.438;2023-10-13T04:17:25;100754.81;;;17.80;100.00
77793;BME280;66983;51.438;5.438;2023-10-13T04:19:53;100757.63;;;17.79;100.00
77793;BME280;66983;51.438;5.438;2023-10-13T04:22:41;100756.53;;;17.81;100.00
77793;BME280;66983;51.438;5.438;2023-10-13T04:25:20;100762.81;;;17.82;100.00
77793;BME280;66983;51.438;5.438;2023-10-13T04:28:06;100748.47;;;17.81;100.00
77793;BME280;66983;51.438;5.438;2023-10-13T04:30:46;100750.94;;;17.84;100.00
77793;BME280;66983;51.438;5.438;2023-10-13T04:36:12;100758.28;;;17.82;100.00
77793;BME280;66983;51.438;5.438;2023-10-13T04:39:03;100753.75;;;17.83;100.00
77793;BME280;66983;51.438;5.438;2023-10-13T04:41:33;100766.25;;;17.84;100.00
77793;BME280;66983;51.438;5.438;2023-10-13T04:44:09;100768.84;;;17.85;100.00
77793;BME280;66983;51.438;5.438;2023-10-13T04:46:54;100758.06;;;17.85;100.00
77793;BME280;66983;51.438;5.438;2023-10-13T04:49:38;100762.69;;;17.83;100.00
77793;BME280;66983;51.438;5.438;2023-10-13T04:52:13;100751.91;;;17.83;100.00
77793;BME280;66983;51.438;5.438;2023-10-13T04:54:52;100762.91;;;17.80;100.00
77793;BME280;66983;51.438;5.438;2023-10-13T04:57:24;100762.16;;;17.78;100.00
77793;BME280;66983;51.438;5.438;2023-10-13T05:00:08;100754.06;;;17.78;100.00
77793;BME280;66983;51.438;5.438;2023-10-13T05:02:41;100757.63;;;17.79;100.00
77793;BME280;66983;51.438;5.438;2023-10-13T05:05:22;100748.56;;;17.80;100.00
77793;BME280;66983;51.438;5.438;2023-10-13T05:08:08;100732.50;;;17.78;100.00
77793;BME280;66983;51.438;5.438;2023-10-13T05:10:52;100724.63;;;17.75;100.00
77793;BME280;66983;51.438;5.438;2023-10-13T05:13:36;100723.44;;;17.79;100.00
77793;BME280;66983;51.438;5.438;2023-10-13T05:16:20;100693.78;;;17.79;100.00
77793;BME280;66983;51.438;5.438;2023-10-13T05:19:04;100685.56;;;17.81;100.00
77793;BME280;66983;51.438;5.438;2023-10-13T05:21:48;100680.19;;;17.81;100.00
77793;BME280;66983;51.438;5.438;2023-10-13T05:24:32;100686.22;;;17.84;100.00
77793;BME280;66983;51.438;5.438;2023-10-13T05:27:16;100667.47;;;17.83;100.00
77793;BME280;66983;51.438;5.438;2023-10-13T05:30:00;100669.19;;;17.84;100.00
77793;BME280;66983;51.438;5.438;2023-10-13T05:32:44;100662.94;;;17.83;100.00
77793;BME280;66983;51.438;5.438;2023-10-13T05:35:31;100656.78;;;17.81;100.00
77793;BME280;66983;51.438;5.438;2023-10-13T05:38:15;100654.94;;;17.82;100.00
77793;BME280;66983;51.438;5.438;2023-10-13T05:41:03;100657.53;;;17.83;100.00
77793;BME280;66983;51.438;5.438;2023-10-13T05:43:48;100653.34;;;17.79;100.00
77793;BME280;66983;51.438;5.438;2023-10-13T05:46:33;100653.97;;;17.83;100.00
77793;BME280;66983;51.438;5.438;2023-10-13T05:49:06;100649.44;;;17.83;100.00
77793;BME280;66983;51.438;5.438;2023-10-13T05:51:34;100653.00;;;17.84;100.00
77793;BME280;66983;51.438;5.438;2023-10-13T05:54:10;100648.47;;;17.84;100.00
77793;BME280;66983;51.438;5.438;2023-10-13T05:56:39;100643.53;;;17.78;100.00
77793;BME280;66983;51.438;5.438;2023-10-13T05:59:23;100645.78;;;17.84;100.00
77793;BME280;66983;51.438;5.438;2023-10-13T06:02:07;100645.03;;;17.82;100.00
77793;BME280;66983;51.438;5.438;2023-10-13T06:04:51;100646.84;;;17.82;100.00
77793;BME280;66983;51.438;5.438;2023-10-13T06:07:35;100654.09;;;17.81;100.00
77793;BME280;66983;51.438;5.438;2023-10-13T06:10:19;100653.97;;;17.83;100.00
77793;BME280;66983;51.438;5.438;2023-10-13T06:13:03;100650.41;;;17.82;100.00
77793;BME280;66983;51.438;5.438;2023-10-13T06:15:47;100632.19;;;17.73;100.00
77793;BME280;66983;51.438;5.438;2023-10-13T06:18:31;100634.56;;;17.78;100.00
77793;BME280;66983;51.438;5.438;2023-10-13T06:21:15;100639.09;;;17.77;100.00
77793;BME280;66983;51.438;5.438;2023-10-13T06:23:59;100633.59;;;17.79;100.00
77793;BME280;66983;51.438;5.438;2023-10-13T06:26:43;100630.03;;;17.78;100.00
77793;BME280;66983;51.438;5.438;2023-10-13T06:29:27;100625.41;;;17.80;100.00
77793;BME280;66983;51.438;5.438;2023-10-13T06:31:52;100635.22;;;17.81;100.00
77793;BME280;66983;51.438;5.438;2023-10-13T06:34:18;100633.28;;;17.83;100.00
77793;BME280;66983;51.438;5.438;2023-10-13T06:36:46;100625.06;;;17.85;100.00
77793;BME280;66983;51.438;5.438;2023-10-13T06:39:13;100625.81;;;17.87;100.00
77793;BME280;66983;51.438;5.438;2023-10-13T06:41:56;100609.53;;;17.88;100.00
77793;BME280;66983;51.438;5.438;2023-10-13T06:44:24;100603.38;;;17.86;100.00
77793;BME280;66983;51.438;5.438;2023-10-13T06:46:50;100603.16;;;17.89;100.00
77793;BME280;66983;51.438;5.438;2023-10-13T06:49:17;100598.63;;;17.90;100.00
77793;BME280;66983;51.438;5.438;2023-10-13T06:51:43;100597.56;;;17.92;100.00
77793;BME280;66983;51.438;5.438;2023-10-13T06:54:12;100603.78;;;17.93;100.00
77793;BME280;66983;51.438;5.438;2023-10-13T06:56:46;100600.97;;;17.94;100.00
77793;BME280;66983;51.438;5.438;2023-10-13T06:59:12;100605.38;;;17.95;100.00
77793;BME280;66983;51.438;5.438;2023-10-13T07:01:40;100601.72;;;17.96;100.00
77793;BME280;66983;51.438;5.438;2023-10-13T07:04:08;100602.47;;;17.98;100.00
77793;BME280;66983;51.438;5.438;2023-10-13T07:06:44;100591.69;;;17.98;100.00
77793;BME280;66983;51.438;5.438;2023-10-13T07:09:16;100587.16;;;17.99;100.00
77793;BME280;66983;51.438;5.438;2023-10-13T07:12:02;100580.78;;;18.00;100.00
77793;BME280;66983;51.438;5.438;2023-10-13T07:14:29;100576.25;;;18.01;100.00
77793;BME280;66983;51.438;5.438;2023-10-13T07:17:04;100573.56;;;18.01;100.00
77793;BME280;66983;51.438;5.438;2023-10-13T07:19:31;100570.09;;;17.98;100.00
77793;BME280;66983;51.438;5.438;2023-10-13T07:22:01;100568.91;;;18.03;100.00
77793;BME280;66983;51.438;5.438;2023-10-13T07:24:50;100568.78;;;18.04;100.00
77793;BME280;66983;51.438;5.438;2023-10-13T07:27:19;100566.00;;;18.06;100.00
77793;BME280;66983;51.438;5.438;2023-10-13T07:29:53;100568.47;;;18.09;100.00
77793;BME280;66983;51.438;5.438;2023-10-13T07:32:31;100556.69;;;18.10;100.00
77793;BME280;66983;51.438;5.438;2023-10-13T07:34:59;100560.88;;;18.14;100.00
77793;BME280;66983;51.438;5.438;2023-10-13T07:37:35;100566.81;;;18.19;100.00
77793;BME280;66983;51.438;5.438;2023-10-13T07:40:01;100568.50;;;18.20;100.00
77793;BME280;66983;51.438;5.438;2023-10-13T07:42:26;100579.19;;;18.21;100.00
77793;BME280;66983;51.438;5.438;2023-10-13T07:45:08;100577.13;;;18.25;100.00
77793;BME280;66983;51.438;5.438;2023-10-13T07:47:36;100563.41;;;18.28;100.00
77793;BME280;66983;51.438;5.438;2023-10-13T07:50:04;100550.53;;;18.31;100.00
77793;BME280;66983;51.438;5.438;2023-10-13T07:52:32;100537.56;;;18.37;100.00
77793;BME280;66983;51.438;5.438;2023-10-13T07:55:06;100538.19;;;18.40;100.00
77793;BME280;66983;51.438;5.438;2023-10-13T07:57:40;100547.03;;;18.42;100.00
77793;BME280;66983;51.438;5.438;2023-10-13T08:00:23;100527.53;;;18.39;100.00
77793;BME280;66983;51.438;5.438;2023-10-13T08:03:13;100535.28;;;18.43;100.00
77793;BME280;66983;51.438;5.438;2023-10-13T08:05:42;100535.00;;;18.46;100.00
77793;BME280;66983;51.438;5.438;2023-10-13T08:08:23;100545.56;;;18.49;100.00
77793;BME280;66983;51.438;5.438;2023-10-13T08:10:57;100523.75;;;18.52;100.00
77793;BME280;66983;51.438;5.438;2023-10-13T08:13:28;100518.22;;;18.54;100.00
77793;BME280;66983;51.438;5.438;2023-10-13T08:15:53;100526.22;;;18.55;100.00
77793;BME280;66983;51.438;5.438;2023-10-13T08:18:20;100527.72;;;18.59;100.00
77793;BME280;66983;51.438;5.438;2023-10-13T08:21:04;100533.88;;;18.61;100.00
77793;BME280;66983;51.438;5.438;2023-10-13T08:23:41;100511.06;;;18.66;100.00
77793;BME280;66983;51.438;5.438;2023-10-13T08:26:20;100514.28;;;18.71;100.00
77793;BME280;66983;51.438;5.438;2023-10-13T08:28:59;100510.31;;;18.75;100.00
77793;BME280;66983;51.438;5.438;2023-10-13T08:31:47;100517.22;;;18.79;100.00
77793;BME280;66983;51.438;5.438;2023-10-13T08:34:32;100522.38;;;18.82;100.00
77793;BME280;66983;51.438;5.438;2023-10-13T08:37:07;100515.00;;;18.84;100.00
77793;BME280;66983;51.438;5.438;2023-10-13T08:39:52;100501.41;;;18.85;100.00
77793;BME280;66983;51.438;5.438;2023-10-13T08:42:32;100496.25;;;18.93;100.00
77793;BME280;66983;51.438;5.438;2023-10-13T08:45:07;100503.59;;;19.03;100.00
77793;BME280;66983;51.438;5.438;2023-10-13T08:47:52;100508.53;;;19.09;100.00
77793;BME280;66983;51.438;5.438;2023-10-13T08:50:44;100513.69;;;19.12;100.00
77793;BME280;66983;51.438;5.438;2023-10-13T08:53:17;100505.22;;;19.16;100.00
77793;BME280;66983;51.438;5.438;2023-10-13T08:55:58;100492.06;;;19.23;100.00
77793;BME280;66983;51.438;5.438;2023-10-13T08:58:48;100507.41;;;19.33;100.00
77793;BME280;66983;51.438;5.438;2023-10-13T09:04:09;100482.22;;;19.44;100.00
77793;BME280;66983;51.438;5.438;2023-10-13T09:06:57;100478.78;;;19.42;100.00
77793;BME280;66983;51.438;5.438;2023-10-13T09:09:33;100481.88;;;19.49;100.00
77793;BME280;66983;51.438;5.438;2023-10-13T09:12:27;100488.88;;;19.51;100.00
77793;BME280;66983;51.438;5.438;2023-10-13T09:15:10;100494.63;;;19.58;100.00
77793;BME280;66983;51.438;5.438;2023-10-13T09:17:46;100489.22;;;19.58;100.00
77793;BME280;66983;51.438;5.438;2023-10-13T09:20:31;100478.66;;;19.55;100.00
77793;BME280;66983;51.438;5.438;2023-10-13T09:23:11;100483.81;;;19.58;100.00
77793;BME280;66983;51.438;5.438;2023-10-13T09:25:50;100488.13;;;19.60;99.65
77793;BME280;66983;51.438;5.438;2023-10-13T09:28:20;100489.84;;;19.61;98.58
77793;BME280;66983;51.438;5.438;2023-10-13T09:30:52;100486.53;;;19.58;99.80
77793;BME280;66983;51.438;5.438;2023-10-13T09:33:23;100489.59;;;19.64;97.47
77793;BME280;66983;51.438;5.438;2023-10-13T09:36:12;100479.50;;;19.67;97.90
77793;BME280;66983;51.438;5.438;2023-10-13T09:38:38;100473.72;;;19.71;97.99
77793;BME280;66983;51.438;5.438;2023-10-13T09:41:32;100473.19;;;19.77;97.11
77793;BME280;66983;51.438;5.438;2023-10-13T09:43:58;100453.03;;;19.81;98.28
77793;BME280;66983;51.438;5.438;2023-10-13T09:46:26;100466.53;;;19.92;97.34
77793;BME280;66983;51.438;5.438;2023-10-13T09:48:58;100467.44;;;20.03;96.13
77793;BME280;66983;51.438;5.438;2023-10-13T09:51:30;100463.50;;;20.07;94.04
77793;BME280;66983;51.438;5.438;2023-10-13T09:54:18;100462.50;;;20.08;93.39
77793;BME280;66983;51.438;5.438;2023-10-13T09:56:58;100452.41;;;20.10;93.66
77793;BME280;66983;51.438;5.438;2023-10-13T09:59:45;100455.84;;;20.12;91.25
77793;BME280;66983;51.438;5.438;2023-10-13T10:02:18;100451.91;;;20.16;92.05
77793;BME280;66983;51.438;5.438;2023-10-13T10:04:57;100446.50;;;20.16;92.29
77793;BME280;66983;51.438;5.438;2023-10-13T10:07:55;100440.19;;;20.26;92.09
77793;BME280;66983;51.438;5.438;2023-10-13T10:10:22;100444.44;;;20.29;92.05
77793;BME280;66983;51.438;5.438;2023-10-13T10:15:32;100424.75;;;20.38;91.11
77793;BME280;66983;51.438;5.438;2023-10-13T10:18:00;100430.03;;;20.40;90.52
77793;BME280;66983;51.438;5.438;2023-10-13T10:20:34;100427.44;;;20.38;92.37
77793;BME280;66983;51.438;5.438;2023-10-13T10:23:23;100423.88;;;20.38;92.97
77793;BME280;66983;51.438;5.438;2023-10-13T10:25:49;100426.19;;;20.42;91.44
77793;BME280;66983;51.438;5.438;2023-10-13T10:28:17;100416.81;;;20.46;90.87
77793;BME280;66983;51.438;5.438;2023-10-13T10:30:44;100422.84;;;20.50;90.68
77793;BME280;66983;51.438;5.438;2023-10-13T10:33:11;100416.28;;;20.52;90.10
77793;BME280;66983;51.438;5.438;2023-10-13T10:35:59;100410.88;;;20.52;90.10
77793;BME280;66983;51.438;5.438;2023-10-13T10:38:24;100394.91;;;20.49;90.79
77793;BME280;66983;51.438;5.438;2023-10-13T10:41:03;100412.56;;;20.53;87.72
77793;BME280;66983;51.438;5.438;2023-10-13T10:48:38;100408.88;;;20.54;88.78
77793;BME280;66983;51.438;5.438;2023-10-13T10:51:09;100402.59;;;20.54;89.90
77793;BME280;66983;51.438;5.438;2023-10-13T10:53:51;100398.03;;;20.54;87.37
77793;BME280;66983;51.438;5.438;2023-10-13T10:56:21;100391.50;;;20.57;85.74
77793;BME280;66983;51.438;5.438;2023-10-13T10:59:06;100392.00;;;20.72;87.06
77793;BME280;66983;51.438;5.438;2023-10-13T11:01:45;100393.59;;;20.74;86.41
77793;BME280;66983;51.438;5.438;2023-10-13T11:04:17;100403.91;;;20.90;84.48
77793;BME280;66983;51.438;5.438;2023-10-13T11:06:51;100398.81;;;20.96;82.97
77793;BME280;66983;51.438;5.438;2023-10-13T11:09:34;100403.97;;;20.99;84.27
77793;BME280;66983;51.438;5.438;2023-10-13T11:14:31;100396.41;;;21.03;82.91
77793;BME280;66983;51.438;5.438;2023-10-13T11:16:58;100394.84;;;21.10;82.38
77793;BME280;66983;51.438;5.438;2023-10-13T11:19:37;100390.28;;;21.11;82.11
77793;BME280;66983;51.438;5.438;2023-10-13T11:22:20;100383.72;;;21.13;81.39
77793;BME280;66983;51.438;5.438;2023-10-13T11:25:05;100373.59;;;21.15;81.17
77793;BME280;66983;51.438;5.438;2023-10-13T11:27:36;100374.31;;;21.17;80.89
77793;BME280;66983;51.438;5.438;2023-10-13T11:30:17;100355.63;;;21.14;79.54
77793;BME280;66983;51.438;5.438;2023-10-13T11:33:06;100346.09;;;21.20;82.38
77793;BME280;66983;51.438;5.438;2023-10-13T11:35:33;100345.72;;;21.24;82.50
77793;BME280;66983;51.438;5.438;2023-10-13T11:38:18;100343.72;;;21.26;83.06
77793;BME280;66983;51.438;5.438;2023-10-13T11:43:46;100331.88;;;21.27;82.57
77793;BME280;66983;51.438;5.438;2023-10-13T11:46:16;100329.03;;;21.29;83.90
77793;BME280;66983;51.438;5.438;2023-10-13T11:48:45;100316.88;;;21.33;80.74
77793;BME280;66983;51.438;5.438;2023-10-13T11:51:19;100318.75;;;21.42;79.56
77793;BME280;66983;51.438;5.438;2023-10-13T11:54:03;100321.91;;;21.47;78.07
77793;BME280;66983;51.438;5.438;2023-10-13T11:56:29;100316.91;;;21.52;80.35
77793;BME280;66983;51.438;5.438;2023-10-13T11:58:54;100311.88;;;21.57;79.44
77793;BME280;66983;51.438;5.438;2023-10-13T12:01:27;100316.16;;;21.60;79.35
77793;BME280;66983;51.438;5.438;2023-10-13T12:04:12;100316.88;;;21.62;81.96
77793;BME280;66983;51.438;5.438;2023-10-13T12:07:17;100307.31;;;21.67;77.94
77793;BME280;66983;51.438;5.438;2023-10-13T12:09:47;100297.91;;;21.72;78.83
77793;BME280;66983;51.438;5.438;2023-10-13T12:12:26;100299.47;;;21.74;79.21
77793;BME280;66983;51.438;5.438;2023-10-13T12:14:53;100290.75;;;21.80;76.75
77793;BME280;66983;51.438;5.438;2023-10-13T12:17:23;100303.28;;;21.91;78.60
77793;BME280;66983;51.438;5.438;2023-10-13T12:19:57;100298.44;;;22.04;77.02
77793;BME280;66983;51.438;5.438;2023-10-13T12:22:23;100291.84;;;22.16;77.02
77793;BME280;66983;51.438;5.438;2023-10-13T12:25:01;100285.38;;;22.27;76.63
77793;BME280;66983;51.438;5.438;2023-10-13T12:27:30;100288.81;;;22.29;77.14
77793;BME280;66983;51.438;5.438;2023-10-13T12:30:12;100290.50;;;22.30;76.60
77793;BME280;66983;51.438;5.438;2023-10-13T12:32:40;100292.94;;;22.33;76.15
77793;BME280;66983;51.438;5.438;2023-10-13T12:35:10;100287.88;;;22.38;75.43
77793;BME280;66983;51.438;5.438;2023-10-13T12:37:36;100279.75;;;22.38;73.08
77793;BME280;66983;51.438;5.438;2023-10-13T12:40:05;100280.88;;;22.45;73.03
77793;BME280;66983;51.438;5.438;2023-10-13T12:42:51;100263.72;;;22.45;74.15
77793;BME280;66983;51.438;5.438;2023-10-13T12:45:46;100267.03;;;22.39;71.84
77793;BME280;66983;51.438;5.438;2023-10-13T12:48:31;100271.84;;;22.45;71.34
77793;BME280;66983;51.438;5.438;2023-10-13T12:51:16;100266.72;;;22.42;70.88
77793;BME280;66983;51.438;5.438;2023-10-13T12:53:57;100269.00;;;22.46;71.39
77793;BME280;66983;51.438;5.438;2023-10-13T12:56:40;100273.00;;;22.42;71.54
77793;BME280;66983;51.438;5.438;2023-10-13T12:59:09;100279.75;;;22.38;69.95
77793;BME280;66983;51.438;5.438;2023-10-13T13:01:39;100275.47;;;22.35;73.78
77793;BME280;66983;51.438;5.438;2023-10-13T13:04:08;100264.78;;;22.34;72.28
77793;BME280;66983;51.438;5.438;2023-10-13T13:06:39;100262.06;;;22.34;71.19
77793;BME280;66983;51.438;5.438;2023-10-13T13:09:05;100268.72;;;22.40;69.08
77793;BME280;66983;51.438;5.438;2023-10-13T13:11:35;100272.00;;;22.43;69.27
77793;BME280;66983;51.438;5.438;2023-10-13T13:14:08;100271.41;;;22.49;66.83
77793;BME280;66983;51.438;5.438;2023-10-13T13:19:01;100276.44;;;22.44;69.67
77793;BME280;66983;51.438;5.438;2023-10-13T13:21:36;100280.88;;;22.45;67.71
77793;BME280;66983;51.438;5.438;2023-10-13T13:26:29;100275.00;;;22.50;68.47
77793;BME280;66983;51.438;5.438;2023-10-13T13:28:56;100265.69;;;22.52;67.01
77793;BME280;66983;51.438;5.438;2023-10-13T13:31:22;100262.25;;;22.50;68.52
77793;BME280;66983;51.438;5.438;2023-10-13T13:33:52;100265.84;;;22.51;68.24
77793;BME280;66983;51.438;5.438;2023-10-13T13:36:17;100265.97;;;22.49;66.62
77793;BME280;66983;51.438;5.438;2023-10-13T13:38:45;100261.56;;;22.48;67.67
77793;BME280;66983;51.438;5.438;2023-10-13T13:41:20;100261.00;;;22.45;68.36
77793;BME280;66983;51.438;5.438;2023-10-13T13:43:48;100263.72;;;22.45;67.67
77793;BME280;66983;51.438;5.438;2023-10-13T13:46:22;100272.31;;;22.40;69.85
77793;BME280;66983;51.438;5.438;2023-10-13T13:48:53;100263.44;;;22.38;67.49